sensor_id;sensor_type;location;lat;lon;timestamp;pressure;altitude;pressure_sealevel;temperature;humidity
30873;BME280;17579;42.690;2.586;2022-12-18T00:01:58;97781.03;;;11.19;64.02
30873;BME280;17579;42.690;2.586;2022-12-18T00:04:27;97781.75;;;11.21;64.00
30873;BME280;17579;42.690;2.586;2022-12-18T00:06:53;97782.56;;;11.21;63.92
30873;BME280;17579;42.690;2.586;2022-12-18T00:09:19;97779.94;;;11.21;64.15
30873;BME280;17579;42.690;2.586;2022-12-18T00:11:45;97778.97;;;11.22;64.23
30873;BME280;17579;42.690;2.586;2022-12-18T00:14:12;97771.97;;;11.21;64.16
30873;BME280;17579;42.690;2.586;2022-12-18T00:16:38;97777.28;;;11.21;64.38
30873;BME280;17579;42.690;2.586;2022-12-18T00:19:05;97789.69;;;11.21;64.28
30873;BME280;17579;42.690;2.586;2022-12-18T00:21:32;97784.53;;;11.19;64.50
30873;BME280;17579;42.690;2.586;2022-12-18T00:23:58;97788.00;;;11.20;64.55
30873;BME280;17579;42.690;2.586;2022-12-18T00:26:26;97790.53;;;11.21;64.23
30873;BME280;17579;42.690;2.586;2022-12-18T00:28:53;97797.63;;;11.21;64.19
30873;BME280;17579;42.690;2.586;2022-12-18T00:31:23;97801.25;;;11.20;63.87
30873;BME280;17579;42.690;2.586;2022-12-18T00:33:49;97799.44;;;11.20;63.98
30873;BME280;17579;42.690;2.586;2022-12-18T00:36:17;97801.38;;;11.18;64.31
30873;BME280;17579;42.690;2.586;2022-12-18T00:38:43;97810.00;;;11.20;64.28
30873;BME280;17579;42.690;2.586;2022-12-18T00:41:10;97803.75;;;11.21;64.27
30873;BME280;17579;42.690;2.586;2022-12-18T00:43:38;97807.50;;;11.19;63.95
30873;BME280;17579;42.690;2.586;2022-12-18T00:46:04;97796.91;;;11.19;64.03
30873;BME280;17579;42.690;2.586;2022-12-18T00:48:30;97797.06;;;11.17;64.17
30873;BME280;17579;42.690;2.586;2022-12-18T00:50:56;97807.38;;;11.20;64.35
30873;BME280;17579;42.690;2.586;2022-12-18T00:53:22;97805.72;;;11.19;64.08
30873;BME280;17579;42.690;2.586;2022-12-18T00:55:47;97808.50;;;11.18;64.37
30873;BME280;17579;42.690;2.586;2022-12-18T00:58:14;97812.13;;;11.17;64.34
30873;BME280;17579;42.690;2.586;2022-12-18T01:00:40;97813.06;;;11.16;64.07
30873;BME280;17579;42.690;2.586;2022-12-18T01:03:06;97809.28;;;11.08;64.49
30873;BME280;17579;42.690;2.586;2022-12-18T01:05:32;97814.88;;;11.05;64.35
30873;BME280;17579;42.690;2.586;2022-12-18T01:07:58;97814.03;;;11.05;64.44
30873;BME280;17579;42.690;2.586;2022-12-18T01:10:24;97818.59;;;11.03;64.46
30873;BME280;17579;42.690;2.586;2022-12-18T01:12:51;97813.44;;;11.01;64.63
30873;BME280;17579;42.690;2.586;2022-12-18T01:15:17;97813.84;;;10.97;64.77
30873;BME280;17579;42.690;2.586;2022-12-18T01:17:42;97820.97;;;10.96;64.70
30873;BME280;17579;42.690;2.586;2022-12-18T01:20:10;97825.69;;;10.92;64.48
30873;BME280;17579;42.690;2.586;2022-12-18T01:22:36;97829.56;;;10.88;64.47
30873;BME280;17579;42.690;2.586;2022-12-18T01:25:02;97835.25;;;10.84;64.55
30873;BME280;17579;42.690;2.586;2022-12-18T01:27:28;97841.78;;;10.80;64.75
30873;BME280;17579;42.690;2.586;2022-12-18T01:29:53;97845.53;;;10.77;64.38
30873;BME280;17579;42.690;2.586;2022-12-18T01:32:19;97845.09;;;10.72;64.51
30873;BME280;17579;42.690;2.586;2022-12-18T01:34:45;97848.25;;;10.66;64.32
30873;BME280;17579;42.690;2.586;2022-12-18T01:37:10;97855.75;;;10.61;64.65
30873;BME280;17579;42.690;2.586;2022-12-18T01:39:36;97859.63;;;10.56;64.75
30873;BME280;17579;42.690;2.586;2022-12-18T01:42:03;97859.88;;;10.53;64.76
30873;BME280;17579;42.690;2.586;2022-12-18T01:50:14;97870.88;;;10.49;64.20
30873;BME280;17579;42.690;2.586;2022-12-18T01:52:42;97880.84;;;10.45;64.27
30873;BME280;17579;42.690;2.586;2022-12-18T01:55:09;97877.50;;;10.43;64.35
30873;BME280;17579;42.690;2.586;2022-12-18T01:57:36;97875.69;;;10.44;64.68
30873;BME280;17579;42.690;2.586;2022-12-18T02:00:08;97874.84;;;10.43;64.79
30873;BME280;17579;42.690;2.586;2022-12-18T02:02:34;97876.25;;;10.47;64.64
30873;BME280;17579;42.690;2.586;2022-12-18T02:05:00;97880.59;;;10.48;64.41
30873;BME280;17579;42.690;2.586;2022-12-18T02:07:43;97882.94;;;10.42;64.95
30873;BME280;17579;42.690;2.586;2022-12-18T02:10:24;97883.34;;;10.47;64.64
30873;BME280;17579;42.690;2.586;2022-12-18T02:13:09;97891.03;;;10.50;64.90
30873;BME280;17579;42.690;2.586;2022-12-18T02:15:49;97895.97;;;10.54;64.56
30873;BME280;17579;42.690;2.586;2022-12-18T02:18:28;97901.34;;;10.53;64.80
30873;BME280;17579;42.690;2.586;2022-12-18T02:21:12;97913.34;;;10.57;64.86
30873;BME280;17579;42.690;2.586;2022-12-18T02:24:12;97907.63;;;10.52;64.47
30873;BME280;17579;42.690;2.586;2022-12-18T02:26:55;97910.28;;;10.52;64.48
30873;BME280;17579;42.690;2.586;2022-12-18T02:29:25;97917.00;;;10.56;64.18
30873;BME280;17579;42.690;2.586;2022-12-18T02:31:55;97918.78;;;10.55;64.42
30873;BME280;17579;42.690;2.586;2022-12-18T02:34:24;97919.63;;;10.56;64.67
30873;BME280;17579;42.690;2.586;2022-12-18T02:36:53;97923.81;;;10.58;64.50
30873;BME280;17579;42.690;2.586;2022-12-18T02:39:21;97934.16;;;10.62;64.74
30873;BME280;17579;42.690;2.586;2022-12-18T02:41:47;97934.03;;;10.63;64.56
30873;BME280;17579;42.690;2.586;2022-12-18T02:44:14;97934.72;;;10.65;64.88
30873;BME280;17579;42.690;2.586;2022-12-18T02:46:42;97934.59;;;10.67;64.85
30873;BME280;17579;42.690;2.586;2022-12-18T02:55:17;97943.78;;;10.51;64.76
30873;BME280;17579;42.690;2.586;2022-12-18T02:57:58;97949.13;;;10.40;64.73
30873;BME280;17579;42.690;2.586;2022-12-18T03:00:41;97951.94;;;10.27;64.68
30873;BME280;17579;42.690;2.586;2022-12-18T03:03:16;97948.81;;;10.22;65.00
30873;BME280;17579;42.690;2.586;2022-12-18T03:06:06;97952.69;;;10.18;65.23
30873;BME280;17579;42.690;2.586;2022-12-18T03:08:41;97952.03;;;10.26;65.23
30873;BME280;17579;42.690;2.586;2022-12-18T03:11:10;97953.47;;;10.30;65.18
30873;BME280;17579;42.690;2.586;2022-12-18T03:16:27;97949.53;;;10.35;65.01
30873;BME280;17579;42.690;2.586;2022-12-18T03:18:57;97956.38;;;10.38;64.57
30873;BME280;17579;42.690;2.586;2022-12-18T03:21:37;97962.75;;;10.35;64.93
30873;BME280;17579;42.690;2.586;2022-12-18T03:24:06;97960.44;;;10.42;64.25
30873;BME280;17579;42.690;2.586;2022-12-18T03:26:33;97963.09;;;10.42;64.51
30873;BME280;17579;42.690;2.586;2022-12-18T03:29:03;97968.50;;;10.40;64.25
30873;BME280;17579;42.690;2.586;2022-12-18T03:31:32;97974.50;;;10.43;64.20
30873;BME280;17579;42.690;2.586;2022-12-18T03:34:01;97973.53;;;10.44;64.01
30873;BME280;17579;42.690;2.586;2022-12-18T03:36:28;97967.28;;;10.45;63.90
30873;BME280;17579;42.690;2.586;2022-12-18T03:38:54;97968.94;;;10.46;63.99
30873;BME280;17579;42.690;2.586;2022-12-18T03:44:33;97968.00;;;10.47;64.14
30873;BME280;17579;42.690;2.586;2022-12-18T03:47:09;97960.78;;;10.49;64.10
30873;BME280;17579;42.690;2.586;2022-12-18T03:52:36;97962.31;;;10.51;64.16
30873;BME280;17579;42.690;2.586;2022-12-18T03:55:04;97964.97;;;10.51;63.96
30873;BME280;17579;42.690;2.586;2022-12-18T03:57:32;97963.16;;;10.52;63.81
30873;BME280;17579;42.690;2.586;2022-12-18T04:00:09;97959.94;;;10.48;64.17
30873;BME280;17579;42.690;2.586;2022-12-18T04:02:37;97961.34;;;10.52;64.13
30873;BME280;17579;42.690;2.586;2022-12-18T04:05:05;97956.06;;;10.52;64.00
30873;BME280;17579;42.690;2.586;2022-12-18T04:07:32;97965.69;;;10.53;64.02
30873;BME280;17579;42.690;2.586;2022-12-18T04:09:59;97962.19;;;10.53;63.73
30873;BME280;17579;42.690;2.586;2022-12-18T04:12:28;97963.16;;;10.52;63.83
30873;BME280;17579;42.690;2.586;2022-12-18T04:14:54;97961.34;;;10.52;63.80
30873;BME280;17579;42.690;2.586;2022-12-18T04:17:20;97956.06;;;10.52;63.64
30873;BME280;17579;42.690;2.586;2022-12-18T04:19:46;97946.44;;;10.51;63.66
30873;BME280;17579;42.690;2.586;2022-12-18T04:22:12;97948.25;;;10.51;63.79
30873;BME280;17579;42.690;2.586;2022-12-18T04:24:37;97942.84;;;10.52;63.54
30873;BME280;17579;42.690;2.586;2022-12-18T04:27:03;97945.63;;;10.51;63.44
30873;BME280;17579;42.690;2.586;2022-12-18T04:29:29;97942.28;;;10.49;63.89
30873;BME280;17579;42.690;2.586;2022-12-18T04:31:54;97940.59;;;10.48;63.80
30873;BME280;17579;42.690;2.586;2022-12-18T04:34:20;97944.06;;;10.48;63.67
30873;BME280;17579;42.690;2.586;2022-12-18T04:36:46;97935.28;;;10.48;63.80
30873;BME280;17579;42.690;2.586;2022-12-18T04:39:12;97938.75;;;10.48;63.64
30873;BME280;17579;42.690;2.586;2022-12-18T04:41:37;97938.75;;;10.48;63.51
30873;BME280;17579;42.690;2.586;2022-12-18T04:44:03;97939.72;;;10.47;63.39
30873;BME280;17579;42.690;2.586;2022-12-18T04:46:29;97950.69;;;10.43;63.40
30873;BME280;17579;42.690;2.586;2022-12-18T04:48:55;97949.25;;;10.38;63.42
30873;BME280;17579;42.690;2.586;2022-12-18T04:51:20;97949.03;;;10.30;63.37
30873;BME280;17579;42.690;2.586;2022-12-18T04:53:46;97948.81;;;10.22;63.36
30873;BME280;17579;42.690;2.586;2022-12-18T04:56:14;97947.28;;;10.19;63.58
30873;BME280;17579;42.690;2.586;2022-12-18T04:58:41;97943.78;;;10.19;63.64
30873;BME280;17579;42.690;2.586;2022-12-18T05:01:08;97950.66;;;10.21;63.50
30873;BME280;17579;42.690;2.586;2022-12-18T05:03:34;97949.66;;;10.22;63.63
30873;BME280;17579;42.690;2.586;2022-12-18T05:06:01;97960.84;;;10.26;63.57
30873;BME280;17579;42.690;2.586;2022-12-18T05:08:26;97953.72;;;10.27;63.64
30873;BME280;17579;42.690;2.586;2022-12-18T05:11:05;97952.31;;;10.22;63.77
30873;BME280;17579;42.690;2.586;2022-12-18T05:13:31;97957.81;;;10.31;63.52
30873;BME280;17579;42.690;2.586;2022-12-18T05:15:57;97958.06;;;10.28;63.33
30873;BME280;17579;42.690;2.586;2022-12-18T05:18:23;97955.16;;;10.31;63.52
30873;BME280;17579;42.690;2.586;2022-12-18T05:20:51;97947.94;;;10.33;63.69
30873;BME280;17579;42.690;2.586;2022-12-18T05:23:17;97951.22;;;10.36;63.52
30873;BME280;17579;42.690;2.586;2022-12-18T05:25:42;97941.34;;;10.38;63.58
30873;BME280;17579;42.690;2.586;2022-12-18T05:28:15;97952.78;;;10.39;63.39
30873;BME280;17579;42.690;2.586;2022-12-18T05:30:42;97950.13;;;10.39;63.37
30873;BME280;17579;42.690;2.586;2022-12-18T05:33:07;97954.56;;;10.38;62.88
30873;BME280;17579;42.690;2.586;2022-12-18T05:35:32;97947.75;;;10.36;63.17
30873;BME280;17579;42.690;2.586;2022-12-18T05:37:58;97946.88;;;10.35;63.06
30873;BME280;17579;42.690;2.586;2022-12-18T05:40:24;97942.56;;;10.34;63.44
30873;BME280;17579;42.690;2.586;2022-12-18T05:42:49;97949.53;;;10.35;63.53
30873;BME280;17579;42.690;2.586;2022-12-18T05:45:15;97949.66;;;10.34;63.34
30873;BME280;17579;42.690;2.586;2022-12-18T05:47:40;97954.47;;;10.29;63.16
30873;BME280;17579;42.690;2.586;2022-12-18T05:50:06;97957.47;;;10.24;63.42
30873;BME280;17579;42.690;2.586;2022-12-18T05:52:32;97957.72;;;10.21;63.47
30873;BME280;17579;42.690;2.586;2022-12-18T05:54:58;97965.31;;;10.14;63.50
30873;BME280;17579;42.690;2.586;2022-12-18T05:57:24;97964.03;;;10.09;63.66
30873;BME280;17579;42.690;2.586;2022-12-18T05:59:50;97983.84;;;10.03;63.73
30873;BME280;17579;42.690;2.586;2022-12-18T06:02:16;97987.19;;;10.05;63.81
30873;BME280;17579;42.690;2.586;2022-12-18T06:04:41;97987.81;;;10.09;63.84
30873;BME280;17579;42.690;2.586;2022-12-18T06:07:07;97991.97;;;10.11;63.65
30873;BME280;17579;42.690;2.586;2022-12-18T06:09:33;97997.16;;;10.13;63.72
30873;BME280;17579;42.690;2.586;2022-12-18T06:11:59;97986.56;;;10.13;63.86
30873;BME280;17579;42.690;2.586;2022-12-18T06:14:24;97995.63;;;10.10;63.96
30873;BME280;17579;42.690;2.586;2022-12-18T06:16:50;98001.59;;;10.12;63.96
30873;BME280;17579;42.690;2.586;2022-12-18T06:19:17;98006.63;;;10.15;63.86
30873;BME280;17579;42.690;2.586;2022-12-18T06:21:42;98003.75;;;10.18;63.52
30873;BME280;17579;42.690;2.586;2022-12-18T06:24:08;98013.88;;;10.13;63.65
30873;BME280;17579;42.690;2.586;2022-12-18T06:26:34;98009.19;;;10.05;63.23
30873;BME280;17579;42.690;2.586;2022-12-18T06:29:01;98009.81;;;9.98;63.66
30873;BME280;17579;42.690;2.586;2022-12-18T06:31:27;98002.38;;;9.92;63.42
30873;BME280;17579;42.690;2.586;2022-12-18T06:33:52;98011.25;;;9.91;63.84
30873;BME280;17579;42.690;2.586;2022-12-18T06:36:18;98013.78;;;9.92;63.79
30873;BME280;17579;42.690;2.586;2022-12-18T06:38:44;98017.25;;;9.93;64.03
30873;BME280;17579;42.690;2.586;2022-12-18T06:41:18;98023.25;;;9.95;63.89
30873;BME280;17579;42.690;2.586;2022-12-18T06:43:44;98021.19;;;9.98;63.89
30873;BME280;17579;42.690;2.586;2022-12-18T06:46:11;98023.63;;;10.01;63.84
30873;BME280;17579;42.690;2.586;2022-12-18T06:48:37;98024.44;;;10.02;63.84
30873;BME280;17579;42.690;2.586;2022-12-18T06:51:03;98020.84;;;10.03;63.88
30873;BME280;17579;42.690;2.586;2022-12-18T06:53:29;98021.09;;;10.00;63.67
30873;BME280;17579;42.690;2.586;2022-12-18T06:56:06;98024.47;;;9.91;63.87
30873;BME280;17579;42.690;2.586;2022-12-18T06:58:32;98024.47;;;9.91;63.44
30873;BME280;17579;42.690;2.586;2022-12-18T07:01:02;98028.44;;;9.85;63.86
30873;BME280;17579;42.690;2.586;2022-12-18T07:03:28;98027.22;;;9.89;63.59
30873;BME280;17579;42.690;2.586;2022-12-18T07:05:53;98029.03;;;9.88;63.52
30873;BME280;17579;42.690;2.586;2022-12-18T07:08:19;98029.75;;;9.91;63.58
30873;BME280;17579;42.690;2.586;2022-12-18T07:10:44;98024.59;;;9.89;63.94
30873;BME280;17579;42.690;2.586;2022-12-18T07:13:10;98035.88;;;9.91;63.98
30873;BME280;17579;42.690;2.586;2022-12-18T07:15:36;98047.28;;;9.92;63.97
30873;BME280;17579;42.690;2.586;2022-12-18T07:18:01;98055.09;;;9.93;63.60
30873;BME280;17579;42.690;2.586;2022-12-18T07:20:27;98047.88;;;9.95;63.91
30873;BME280;17579;42.690;2.586;2022-12-18T07:22:52;98047.88;;;9.95;63.81
30873;BME280;17579;42.690;2.586;2022-12-18T07:25:18;98041.88;;;9.93;63.68
30873;BME280;17579;42.690;2.586;2022-12-18T07:27:43;98036.72;;;9.92;63.99
30873;BME280;17579;42.690;2.586;2022-12-18T07:30:10;98045.72;;;9.89;63.62
30873;BME280;17579;42.690;2.586;2022-12-18T07:32:35;98040.81;;;9.84;63.98
30873;BME280;17579;42.690;2.586;2022-12-18T07:35:01;98039.25;;;9.82;64.18
30873;BME280;17579;42.690;2.586;2022-12-18T07:37:27;98041.19;;;9.80;63.95
30873;BME280;17579;42.690;2.586;2022-12-18T07:39:52;98045.72;;;9.78;64.15
30873;BME280;17579;42.690;2.586;2022-12-18T07:42:18;98043.22;;;9.76;64.37
30873;BME280;17579;42.690;2.586;2022-12-18T07:44:55;98045.03;;;9.76;64.16
30873;BME280;17579;42.690;2.586;2022-12-18T07:47:20;98048.50;;;9.76;64.37
30873;BME280;17579;42.690;2.586;2022-12-18T07:49:46;98052.22;;;9.74;64.43
30873;BME280;17579;42.690;2.586;2022-12-18T07:52:12;98047.06;;;9.72;64.00
30873;BME280;17579;42.690;2.586;2022-12-18T07:54:38;98050.19;;;9.66;64.16
30873;BME280;17579;42.690;2.586;2022-12-18T07:57:04;98052.19;;;9.62;64.16
30873;BME280;17579;42.690;2.586;2022-12-18T07:59:29;98044.53;;;9.59;64.14
30873;BME280;17579;42.690;2.586;2022-12-18T08:01:54;98054.50;;;9.56;64.37
30873;BME280;17579;42.690;2.586;2022-12-18T08:04:20;98054.38;;;9.57;64.29
30873;BME280;17579;42.690;2.586;2022-12-18T08:06:46;98051.50;;;9.60;64.14
30873;BME280;17579;42.690;2.586;2022-12-18T08:09:11;98057.50;;;9.62;64.08
30873;BME280;17579;42.690;2.586;2022-12-18T08:11:37;98056.53;;;9.63;64.25
30873;BME280;17579;42.690;2.586;2022-12-18T08:14:02;98047.66;;;9.64;64.08
30873;BME280;17579;42.690;2.586;2022-12-18T08:16:28;98062.44;;;9.67;63.92
30873;BME280;17579;42.690;2.586;2022-12-18T08:18:54;98067.72;;;9.67;63.84
30873;BME280;17579;42.690;2.586;2022-12-18T08:21:24;98071.19;;;9.67;63.96
30873;BME280;17579;42.690;2.586;2022-12-18T08:23:50;98065.16;;;9.65;63.82
30873;BME280;17579;42.690;2.586;2022-12-18T08:26:16;98074.91;;;9.65;63.50
30873;BME280;17579;42.690;2.586;2022-12-18T08:28:42;98066.03;;;9.66;64.06
30873;BME280;17579;42.690;2.586;2022-12-18T08:31:08;98065.66;;;9.70;63.74
30873;BME280;17579;42.690;2.586;2022-12-18T08:33:36;98076.84;;;9.74;63.42
30873;BME280;17579;42.690;2.586;2022-12-18T08:36:03;98065.19;;;9.77;63.47
30873;BME280;17579;42.690;2.586;2022-12-18T08:38:32;98064.22;;;9.78;63.56
30873;BME280;17579;42.690;2.586;2022-12-18T08:40:59;98069.50;;;9.78;63.62
30873;BME280;17579;42.690;2.586;2022-12-18T08:43:25;98068.81;;;9.76;63.21
30873;BME280;17579;42.690;2.586;2022-12-18T08:46:03;98075.63;;;9.78;63.26
30873;BME280;17579;42.690;2.586;2022-12-18T08:48:28;98072.16;;;9.78;63.37
30873;BME280;17579;42.690;2.586;2022-12-18T08:50:58;98072.88;;;9.80;63.18
30873;BME280;17579;42.690;2.586;2022-12-18T08:53:24;98068.19;;;9.83;63.25
30873;BME280;17579;42.690;2.586;2022-12-18T08:55:50;98065.41;;;9.85;63.14
30873;BME280;17579;42.690;2.586;2022-12-18T08:58:16;98069.03;;;9.84;63.28
30873;BME280;17579;42.690;2.586;2022-12-18T09:00:41;98082.72;;;9.78;63.00
30873;BME280;17579;42.690;2.586;2022-12-18T09:03:14;98083.44;;;9.68;63.49
30873;BME280;17579;42.690;2.586;2022-12-18T09:05:40;98081.16;;;9.75;63.11
30873;BME280;17579;42.690;2.586;2022-12-18T09:08:05;98080.69;;;9.70;63.12
30873;BME280;17579;42.690;2.586;2022-12-18T09:10:31;98080.56;;;9.71;63.46
30873;BME280;17579;42.690;2.586;2022-12-18T09:12:57;98087.28;;;9.76;62.90
30873;BME280;17579;42.690;2.586;2022-12-18T09:15:23;98084.78;;;9.74;63.22
30873;BME280;17579;42.690;2.586;2022-12-18T09:17:48;98090.19;;;9.73;63.42
30873;BME280;17579;42.690;2.586;2022-12-18T09:20:15;98088.72;;;9.68;63.23
30873;BME280;17579;42.690;2.586;2022-12-18T09:22:41;98084.75;;;9.63;63.12
30873;BME280;17579;42.690;2.586;2022-12-18T09:25:07;98090.50;;;9.57;63.51
30873;BME280;17579;42.690;2.586;2022-12-18T09:27:33;98087.63;;;9.48;63.71
30873;BME280;17579;42.690;2.586;2022-12-18T09:29:59;98083.19;;;9.49;63.85
30873;BME280;17579;42.690;2.586;2022-12-18T09:32:25;98080.78;;;9.46;63.64
30873;BME280;17579;42.690;2.586;2022-12-18T09:34:50;98080.66;;;9.47;64.00
30873;BME280;17579;42.690;2.586;2022-12-18T09:37:16;98078.41;;;9.54;64.20
30873;BME280;17579;42.690;2.586;2022-12-18T09:39:41;98082.25;;;9.61;64.06
30873;BME280;17579;42.690;2.586;2022-12-18T09:42:17;98093.00;;;9.58;64.31
30873;BME280;17579;42.690;2.586;2022-12-18T09:44:50;98091.81;;;9.62;64.24
30873;BME280;17579;42.690;2.586;2022-12-18T09:47:19;98093.66;;;9.73;64.30
30873;BME280;17579;42.690;2.586;2022-12-18T09:49:51;98092.09;;;9.82;64.06
30873;BME280;17579;42.690;2.586;2022-12-18T09:52:37;98092.69;;;9.74;64.21
30873;BME280;17579;42.690;2.586;2022-12-18T09:55:24;98089.69;;;9.79;64.32
30873;BME280;17579;42.690;2.586;2022-12-18T09:57:57;98079.25;;;9.88;64.42
30873;BME280;17579;42.690;2.586;2022-12-18T10:00:25;98078.75;;;9.95;64.25
30873;BME280;17579;42.690;2.586;2022-12-18T10:02:53;98076.00;;;9.96;64.48
30873;BME280;17579;42.690;2.586;2022-12-18T10:05:46;98076.59;;;9.88;64.51
30873;BME280;17579;42.690;2.586;2022-12-18T10:08:43;98080.91;;;9.89;64.27
30873;BME280;17579;42.690;2.586;2022-12-18T10:17:19;98074.78;;;9.89;64.45
30873;BME280;17579;42.690;2.586;2022-12-18T10:20:00;98066.38;;;9.95;64.38
30873;BME280;17579;42.690;2.586;2022-12-18T10:26:01;98069.25;;;10.03;64.50
30873;BME280;17579;42.690;2.586;2022-12-18T10:28:29;98061.56;;;10.12;64.13
30873;BME280;17579;42.690;2.586;2022-12-18T10:30:55;98063.47;;;10.10;64.34
30873;BME280;17579;42.690;2.586;2022-12-18T10:33:23;98060.38;;;10.04;64.50
30873;BME280;17579;42.690;2.586;2022-12-18T10:35:51;98065.53;;;10.06;64.71
30873;BME280;17579;42.690;2.586;2022-12-18T10:38:22;98063.72;;;10.06;64.75
30873;BME280;17579;42.690;2.586;2022-12-18T10:40:56;98073.09;;;10.11;64.78
30873;BME280;17579;42.690;2.586;2022-12-18T10:43:35;98069.50;;;10.12;64.67
30873;BME280;17579;42.690;2.586;2022-12-18T10:46:21;98062.66;;;10.09;64.76
30873;BME280;17579;42.690;2.586;2022-12-18T10:48:51;98067.56;;;10.14;64.56
30873;BME280;17579;42.690;2.586;2022-12-18T10:51:25;98055.53;;;10.10;64.87
30873;BME280;17579;42.690;2.586;2022-12-18T10:53:57;98055.66;;;10.08;64.84
30873;BME280;17579;42.690;2.586;2022-12-18T10:56:26;98039.81;;;10.08;65.01
30873;BME280;17579;42.690;2.586;2022-12-18T10:59:05;98046.09;;;10.07;65.12
30873;BME280;17579;42.690;2.586;2022-12-18T11:01:54;98048.47;;;10.10;65.20
30873;BME280;17579;42.690;2.586;2022-12-18T11:04:28;98045.91;;;10.20;65.32
30873;BME280;17579;42.690;2.586;2022-12-18T11:07:03;98038.47;;;10.25;65.03
30873;BME280;17579;42.690;2.586;2022-12-18T11:09:37;98029.06;;;10.32;65.59
30873;BME280;17579;42.690;2.586;2022-12-18T11:12:14;98035.81;;;10.36;65.55
30873;BME280;17579;42.690;2.586;2022-12-18T11:14:49;98028.59;;;10.38;65.41
30873;BME280;17579;42.690;2.586;2022-12-18T11:17:28;98019.72;;;10.39;65.54
30873;BME280;17579;42.690;2.586;2022-12-18T11:19:57;98008.25;;;10.50;65.73
30873;BME280;17579;42.690;2.586;2022-12-18T11:22:32;98012.69;;;10.50;65.83
30873;BME280;17579;42.690;2.586;2022-12-18T11:27:38;98000.28;;;10.62;66.05
30873;BME280;17579;42.690;2.586;2022-12-18T11:30:24;97998.13;;;10.55;65.96
30873;BME280;17579;42.690;2.586;2022-12-18T11:33:09;97994.00;;;10.63;65.97
30873;BME280;17579;42.690;2.586;2022-12-18T11:35:49;97995.69;;;10.64;65.72
30873;BME280;17579;42.690;2.586;2022-12-18T11:38:33;97993.31;;;10.61;66.09
30873;BME280;17579;42.690;2.586;2022-12-18T11:41:26;97982.47;;;10.64;66.08
30873;BME280;17579;42.690;2.586;2022-12-18T11:44:21;97980.38;;;10.67;65.91
30873;BME280;17579;42.690;2.586;2022-12-18T11:46:52;97975.09;;;10.67;66.02
30873;BME280;17579;42.690;2.586;2022-12-18T11:49:34;97977.31;;;10.62;66.27
30873;BME280;17579;42.690;2.586;2022-12-18T11:52:21;97967.56;;;10.63;66.71
30873;BME280;17579;42.690;2.586;2022-12-18T11:54:53;97962.34;;;10.72;66.57
30873;BME280;17579;42.690;2.586;2022-12-18T12:00:21;97959.94;;;10.69;66.55
30873;BME280;17579;42.690;2.586;2022-12-18T12:03:13;97951.41;;;10.66;66.75
30873;BME280;17579;42.690;2.586;2022-12-18T12:09:01;97953.09;;;10.67;66.69
30873;BME280;17579;42.690;2.586;2022-12-18T12:11:50;97944.91;;;10.70;66.58
30873;BME280;17579;42.690;2.586;2022-12-18T12:14:50;97945.63;;;10.72;66.77
30873;BME280;17579;42.690;2.586;2022-12-18T12:17:32;97948.91;;;10.85;66.48
30873;BME280;17579;42.690;2.586;2022-12-18T12:20:22;97927.22;;;10.91;66.74
30873;BME280;17579;42.690;2.586;2022-12-18T12:23:13;97927.28;;;11.01;66.60
30873;BME280;17579;42.690;2.586;2022-12-18T12:25:52;97920.88;;;11.04;66.32
30873;BME280;17579;42.690;2.586;2022-12-18T12:28:49;97925.44;;;11.02;66.73
30873;BME280;17579;42.690;2.586;2022-12-18T12:34:26;97902.41;;;11.14;66.91
30873;BME280;17579;42.690;2.586;2022-12-18T12:37:15;97897.97;;;11.24;67.03
30873;BME280;17579;42.690;2.586;2022-12-18T12:39:46;97901.38;;;11.36;66.78
30873;BME280;17579;42.690;2.586;2022-12-18T12:42:23;97890.94;;;11.44;66.96
30873;BME280;17579;42.690;2.586;2022-12-18T12:45:05;97888.31;;;11.54;66.71
30873;BME280;17579;42.690;2.586;2022-12-18T12:47:37;97883.16;;;11.52;66.68
30873;BME280;17579;42.690;2.586;2022-12-18T12:50:11;97881.47;;;11.51;66.61
30873;BME280;17579;42.690;2.586;2022-12-18T12:52:41;97879.97;;;11.58;66.87
30873;BME280;17579;42.690;2.586;2022-12-18T12:55:17;97876.19;;;11.71;66.40
30873;BME280;17579;42.690;2.586;2022-12-18T12:57:48;97868.00;;;11.74;66.54
30873;BME280;17579;42.690;2.586;2022-12-18T13:00:19;97871.66;;;11.83;66.57
30873;BME280;17579;42.690;2.586;2022-12-18T13:03:13;97863.41;;;11.86;66.65
30873;BME280;17579;42.690;2.586;2022-12-18T13:05:58;97861.78;;;11.94;66.05
30873;BME280;17579;42.690;2.586;2022-12-18T13:08:31;97859.81;;;11.96;65.48
30873;BME280;17579;42.690;2.586;2022-12-18T13:10:58;97857.00;;;11.98;65.45
30873;BME280;17579;42.690;2.586;2022-12-18T13:13:55;97853.09;;;11.92;66.07
30873;BME280;17579;42.690;2.586;2022-12-18T13:16:22;97850.06;;;12.07;66.15
30873;BME280;17579;42.690;2.586;2022-12-18T13:18:53;97841.41;;;12.15;65.98
30873;BME280;17579;42.690;2.586;2022-12-18T13:21:28;97848.94;;;12.29;66.08
30873;BME280;17579;42.690;2.586;2022-12-18T13:23:54;97853.50;;;12.46;65.18
30873;BME280;17579;42.690;2.586;2022-12-18T13:26:38;97848.34;;;12.45;65.65
30873;BME280;17579;42.690;2.586;2022-12-18T13:29:04;97844.13;;;12.62;64.63
30873;BME280;17579;42.690;2.586;2022-12-18T13:31:57;97849.13;;;12.65;65.47
30873;BME280;17579;42.690;2.586;2022-12-18T13:34:29;97845.91;;;12.71;64.36
30873;BME280;17579;42.690;2.586;2022-12-18T13:37:33;97843.50;;;12.78;64.33
30873;BME280;17579;42.690;2.586;2022-12-18T13:39:42;97841.97;;;12.85;64.26
30873;BME280;17579;42.690;2.586;2022-12-18T13:48:02;97847.34;;;13.03;63.52
30873;BME280;17579;42.690;2.586;2022-12-18T13:50:29;97849.00;;;13.04;63.33
30873;BME280;17579;42.690;2.586;2022-12-18T13:52:54;97842.88;;;13.04;63.95
30873;BME280;17579;42.690;2.586;2022-12-18T13:55:22;97829.69;;;13.12;63.62
30873;BME280;17579;42.690;2.586;2022-12-18T13:57:47;97832.31;;;13.22;63.59
30873;BME280;17579;42.690;2.586;2022-12-18T14:00:28;97848.53;;;13.18;63.42
30873;BME280;17579;42.690;2.586;2022-12-18T14:02:55;97848.19;;;13.31;63.47
30873;BME280;17579;42.690;2.586;2022-12-18T14:05:30;97852.97;;;13.38;63.40
30873;BME280;17579;42.690;2.586;2022-12-18T14:08:01;97847.88;;;13.44;63.06